sensor_id;sensor_type;location;lat;lon;timestamp;pressure;altitude;pressure_sealevel;temperature;humidity
70314;BME280;57725;47.526;18.986;2023-02-13T00:02:05;101967.84;;;2.96;93.86
70314;BME280;57725;47.526;18.986;2023-02-13T00:04:33;101971.31;;;2.96;93.72
70314;BME280;57725;47.526;18.986;2023-02-13T00:07:02;101971.31;;;2.96;93.65
70314;BME280;57725;47.526;18.986;2023-02-13T00:09:28;101975.59;;;2.96;93.72
70314;BME280;57725;47.526;18.986;2023-02-13T00:11:53;101965.28;;;2.96;93.52
70314;BME280;57725;47.526;18.986;2023-02-13T00:14:18;101968.69;;;2.95;93.86
70314;BME280;57725;47.526;18.986;2023-02-13T00:16:44;101971.22;;;2.93;93.96
70314;BME280;57725;47.526;18.986;2023-02-13T00:19:14;101985.88;;;2.92;93.84
70314;BME280;57725;47.526;18.986;2023-02-13T00:21:40;101980.69;;;2.92;93.92
70314;BME280;57725;47.526;18.986;2023-02-13T00:24:06;101984.13;;;2.91;93.93
70314;BME280;57725;47.526;18.986;2023-02-13T00:26:31;101985.00;;;2.92;93.77
70314;BME280;57725;47.526;18.986;2023-02-13T00:28:56;101984.94;;;2.90;93.94
70314;BME280;57725;47.526;18.986;2023-02-13T00:31:22;101978.06;;;2.91;93.93
70314;BME280;57725;47.526;18.986;2023-02-13T00:33:50;101978.88;;;2.88;94.26
70314;BME280;57725;47.526;18.986;2023-02-13T00:36:20;101987.53;;;2.90;93.58
70314;BME280;57725;47.526;18.986;2023-02-13T00:38:48;101984.03;;;2.88;93.70
70314;BME280;57725;47.526;18.986;2023-02-13T00:41:16;101980.63;;;2.88;93.83
70314;BME280;57725;47.526;18.986;2023-02-13T00:43:44;101980.63;;;2.88;93.88
70314;BME280;57725;47.526;18.986;2023-02-13T00:46:14;101984.03;;;2.87;93.76
70314;BME280;57725;47.526;18.986;2023-02-13T00:48:39;101979.75;;;2.87;93.98
70314;BME280;57725;47.526;18.986;2023-02-13T00:51:06;101984.00;;;2.85;93.80
70314;BME280;57725;47.526;18.986;2023-02-13T00:53:32;101975.38;;;2.85;93.79
70314;BME280;57725;47.526;18.986;2023-02-13T00:55:58;101970.19;;;2.85;94.26
70314;BME280;57725;47.526;18.986;2023-02-13T00:58:24;101968.50;;;2.85;93.75
70314;BME280;57725;47.526;18.986;2023-02-13T01:00:52;101966.75;;;2.84;93.92
70314;BME280;57725;47.526;18.986;2023-02-13T01:03:21;101971.03;;;2.84;93.85
70314;BME280;57725;47.526;18.986;2023-02-13T01:05:47;101965.88;;;2.84;94.00
70314;BME280;57725;47.526;18.986;2023-02-13T01:08:14;101967.59;;;2.83;93.97
70314;BME280;57725;47.526;18.986;2023-02-13T01:10:46;101964.06;;;2.80;94.01
70314;BME280;57725;47.526;18.986;2023-02-13T01:13:14;101958.00;;;2.79;93.81
70314;BME280;57725;47.526;18.986;2023-02-13T01:15:45;101961.50;;;2.81;93.76
70314;BME280;57725;47.526;18.986;2023-02-13T01:18:15;101949.38;;;2.79;94.08
70314;BME280;57725;47.526;18.986;2023-02-13T01:20:42;101950.25;;;2.79;93.88
70314;BME280;57725;47.526;18.986;2023-02-13T01:23:13;101951.09;;;2.78;94.12
70314;BME280;57725;47.526;18.986;2023-02-13T01:25:40;101953.72;;;2.80;93.97
70314;BME280;57725;47.526;18.986;2023-02-13T01:28:05;101956.31;;;2.80;94.08
70314;BME280;57725;47.526;18.986;2023-02-13T01:30:30;101949.38;;;2.79;93.99
70314;BME280;57725;47.526;18.986;2023-02-13T01:32:56;101953.69;;;2.78;94.14
70314;BME280;57725;47.526;18.986;2023-02-13T01:35:21;101955.38;;;2.78;94.01
70314;BME280;57725;47.526;18.986;2023-02-13T01:37:47;101955.38;;;2.76;93.96
70314;BME280;57725;47.526;18.986;2023-02-13T01:40:13;101948.44;;;2.74;94.17
70314;BME280;57725;47.526;18.986;2023-02-13T01:42:42;101943.31;;;2.75;93.91
70314;BME280;57725;47.526;18.986;2023-02-13T01:45:24;101948.44;;;2.74;94.22
70314;BME280;57725;47.526;18.986;2023-02-13T01:47:51;101946.69;;;2.73;94.08
70314;BME280;57725;47.526;18.986;2023-02-13T01:53:06;101949.28;;;2.73;94.06
70314;BME280;57725;47.526;18.986;2023-02-13T01:55:36;101947.53;;;2.72;94.04
70314;BME280;57725;47.526;18.986;2023-02-13T01:58:08;101948.34;;;2.71;93.92
70314;BME280;57725;47.526;18.986;2023-02-13T02:00:36;101944.91;;;2.70;94.16
70314;BME280;57725;47.526;18.986;2023-02-13T02:03:20;101937.03;;;2.66;94.15
70314;BME280;57725;47.526;18.986;2023-02-13T02:05:48;101944.88;;;2.69;94.11
70314;BME280;57725;47.526;18.986;2023-02-13T02:08:14;101943.13;;;2.68;94.10
70314;BME280;57725;47.526;18.986;2023-02-13T02:10:40;101937.03;;;2.64;94.22
70314;BME280;57725;47.526;18.986;2023-02-13T02:13:10;101944.78;;;2.66;94.53
70314;BME280;57725;47.526;18.986;2023-02-13T02:15:36;101942.22;;;2.66;94.29
70314;BME280;57725;47.526;18.986;2023-02-13T02:18:05;101942.22;;;2.66;94.14
70314;BME280;57725;47.526;18.986;2023-02-13T02:26:11;101939.63;;;2.64;94.34
70314;BME280;57725;47.526;18.986;2023-02-13T02:42:39;101937.78;;;2.60;94.50
70314;BME280;57725;47.526;18.986;2023-02-13T02:45:13;101936.91;;;2.60;94.29
70314;BME280;57725;47.526;18.986;2023-02-13T02:51:02;101930.84;;;2.58;94.34
70314;BME280;57725;47.526;18.986;2023-02-13T02:53:39;101932.56;;;2.57;94.34
70314;BME280;57725;47.526;18.986;2023-02-13T02:56:21;101935.97;;;2.56;94.32
70314;BME280;57725;47.526;18.986;2023-02-13T02:58:56;101935.09;;;2.55;94.43
70314;BME280;57725;47.526;18.986;2023-02-13T03:01:42;101935.09;;;2.55;94.27
70314;BME280;57725;47.526;18.986;2023-02-13T03:04:29;101927.31;;;2.54;94.56
70314;BME280;57725;47.526;18.986;2023-02-13T03:07:17;101927.31;;;2.52;94.03
70314;BME280;57725;47.526;18.986;2023-02-13T03:09:46;101925.56;;;2.51;94.70
70314;BME280;57725;47.526;18.986;2023-02-13T03:12:43;101941.09;;;2.54;94.32
70314;BME280;57725;47.526;18.986;2023-02-13T03:15:32;101938.50;;;2.53;94.33
70314;BME280;57725;47.526;18.986;2023-02-13T03:18:01;101939.34;;;2.52;94.75
70314;BME280;57725;47.526;18.986;2023-02-13T03:20:54;101931.59;;;2.52;94.59
70314;BME280;57725;47.526;18.986;2023-02-13T03:24:00;101935.00;;;2.51;94.54
70314;BME280;57725;47.526;18.986;2023-02-13T03:29:52;101933.22;;;2.48;94.53
70314;BME280;57725;47.526;18.986;2023-02-13T03:35:40;101939.25;;;2.49;94.49
70314;BME280;57725;47.526;18.986;2023-02-13T03:41:10;101930.66;;;2.48;94.32
70314;BME280;57725;47.526;18.986;2023-02-13T03:43:59;101928.03;;;2.47;94.54
70314;BME280;57725;47.526;18.986;2023-02-13T03:46:29;101930.59;;;2.47;94.40
70314;BME280;57725;47.526;18.986;2023-02-13T03:48:58;101930.56;;;2.45;94.35
70314;BME280;57725;47.526;18.986;2023-02-13T03:52:28;101925.41;;;2.45;94.60
70314;BME280;57725;47.526;18.986;2023-02-13T03:54:57;101930.56;;;2.45;94.69
70314;BME280;57725;47.526;18.986;2023-02-13T03:57:43;101921.03;;;2.43;94.83
70314;BME280;57725;47.526;18.986;2023-02-13T04:00:34;101919.31;;;2.42;94.73
70314;BME280;57725;47.526;18.986;2023-02-13T04:03:23;101932.22;;;2.43;94.75
70314;BME280;57725;47.526;18.986;2023-02-13T04:06:00;101929.66;;;2.42;94.52
70314;BME280;57725;47.526;18.986;2023-02-13T04:08:27;101921.91;;;2.42;94.45
70314;BME280;57725;47.526;18.986;2023-02-13T04:10:57;101929.59;;;2.40;94.81
70314;BME280;57725;47.526;18.986;2023-02-13T04:13:34;101933.94;;;2.41;94.34
70314;BME280;57725;47.526;18.986;2023-02-13T04:18:30;101927.91;;;2.41;94.76
70314;BME280;57725;47.526;18.986;2023-02-13T04:21:03;101927.03;;;2.40;94.53
70314;BME280;57725;47.526;18.986;2023-02-13T04:23:31;101929.59;;;2.40;94.73
70314;BME280;57725;47.526;18.986;2023-02-13T04:25:59;101929.56;;;2.39;94.70
70314;BME280;57725;47.526;18.986;2023-02-13T04:28:26;101920.13;;;2.39;94.70
70314;BME280;57725;47.526;18.986;2023-02-13T04:30:52;101914.88;;;2.36;94.51
70314;BME280;57725;47.526;18.986;2023-02-13T04:33:17;101920.88;;;2.35;94.28
70314;BME280;57725;47.526;18.986;2023-02-13T04:35:43;101915.66;;;2.34;94.73
70314;BME280;57725;47.526;18.986;2023-02-13T04:38:08;101917.44;;;2.36;94.85
70314;BME280;57725;47.526;18.986;2023-02-13T04:40:36;101921.75;;;2.36;94.47
70314;BME280;57725;47.526;18.986;2023-02-13T04:43:04;101915.69;;;2.35;94.73
70314;BME280;57725;47.526;18.986;2023-02-13T04:45:30;101914.00;;;2.36;94.46
70314;BME280;57725;47.526;18.986;2023-02-13T04:47:58;101911.38;;;2.34;94.42
70314;BME280;57725;47.526;18.986;2023-02-13T04:50:24;101913.13;;;2.35;94.94
70314;BME280;57725;47.526;18.986;2023-02-13T04:52:53;101907.03;;;2.33;94.74
70314;BME280;57725;47.526;18.986;2023-02-13T04:55:20;101905.31;;;2.32;94.93
70314;BME280;57725;47.526;18.986;2023-02-13T04:57:47;101909.63;;;2.33;94.72
70314;BME280;57725;47.526;18.986;2023-02-13T05:00:13;101915.66;;;2.34;94.38
70314;BME280;57725;47.526;18.986;2023-02-13T05:02:43;101910.47;;;2.32;94.75
70314;BME280;57725;47.526;18.986;2023-02-13T05:05:08;101907.88;;;2.32;94.81
70314;BME280;57725;47.526;18.986;2023-02-13T05:07:34;101900.13;;;2.31;94.39
70314;BME280;57725;47.526;18.986;2023-02-13T05:09:59;101900.13;;;2.31;94.41
70314;BME280;57725;47.526;18.986;2023-02-13T05:12:29;101907.00;;;2.30;94.84
70314;BME280;57725;47.526;18.986;2023-02-13T05:15:00;101900.09;;;2.29;94.53
70314;BME280;57725;47.526;18.986;2023-02-13T05:17:28;101898.34;;;2.28;94.79
70314;BME280;57725;47.526;18.986;2023-02-13T05:19:55;101903.53;;;2.30;94.57
70314;BME280;57725;47.526;18.986;2023-02-13T05:22:23;101900.09;;;2.29;94.76
70314;BME280;57725;47.526;18.986;2023-02-13T05:25:10;101888.03;;;2.28;94.77
70314;BME280;57725;47.526;18.986;2023-02-13T05:27:35;101891.47;;;2.29;94.36
70314;BME280;57725;47.526;18.986;2023-02-13T05:30:00;101894.88;;;2.28;94.79
70314;BME280;57725;47.526;18.986;2023-02-13T05:32:26;101883.69;;;2.27;94.82
70314;BME280;57725;47.526;18.986;2023-02-13T05:34:51;101890.56;;;2.27;94.57
70314;BME280;57725;47.526;18.986;2023-02-13T05:37:19;101894.00;;;2.27;94.87
70314;BME280;57725;47.526;18.986;2023-02-13T05:39:44;101898.31;;;2.27;94.40
70314;BME280;57725;47.526;18.986;2023-02-13T05:42:10;101898.31;;;2.27;94.92
70314;BME280;57725;47.526;18.986;2023-02-13T05:44:35;101897.44;;;2.26;94.49
70314;BME280;57725;47.526;18.986;2023-02-13T05:47:01;101901.75;;;2.27;94.65
70314;BME280;57725;47.526;18.986;2023-02-13T05:49:31;101896.47;;;2.23;94.67
70314;BME280;57725;47.526;18.986;2023-02-13T05:51:56;101899.09;;;2.24;94.89
70314;BME280;57725;47.526;18.986;2023-02-13T05:54:24;101896.53;;;2.24;94.83
70314;BME280;57725;47.526;18.986;2023-02-13T05:56:52;101903.38;;;2.24;94.93
70314;BME280;57725;47.526;18.986;2023-02-13T05:59:17;101906.81;;;2.23;94.64
70314;BME280;57725;47.526;18.986;2023-02-13T06:01:43;101907.69;;;2.23;94.53
70314;BME280;57725;47.526;18.986;2023-02-13T06:04:10;101906.75;;;2.21;94.67
70314;BME280;57725;47.526;18.986;2023-02-13T06:06:36;101917.97;;;2.22;94.56
70314;BME280;57725;47.526;18.986;2023-02-13T06:09:01;101920.53;;;2.22;94.50
70314;BME280;57725;47.526;18.986;2023-02-13T06:11:29;101924.81;;;2.21;94.42
70314;BME280;57725;47.526;18.986;2023-02-13T06:13:57;101927.41;;;2.21;94.86
70314;BME280;57725;47.526;18.986;2023-02-13T06:16:22;101929.06;;;2.17;94.97
70314;BME280;57725;47.526;18.986;2023-02-13T06:18:47;101923.91;;;2.17;94.76
70314;BME280;57725;47.526;18.986;2023-02-13T06:21:13;101932.56;;;2.21;94.90
70314;BME280;57725;47.526;18.986;2023-02-13T06:23:38;101935.97;;;2.20;94.49
70314;BME280;57725;47.526;18.986;2023-02-13T06:26:06;101937.69;;;2.19;94.75
70314;BME280;57725;47.526;18.986;2023-02-13T06:28:31;101938.56;;;2.20;94.64
70314;BME280;57725;47.526;18.986;2023-02-13T06:30:57;101934.25;;;2.19;94.76
70314;BME280;57725;47.526;18.986;2023-02-13T06:33:25;101940.28;;;2.19;94.73
70314;BME280;57725;47.526;18.986;2023-02-13T06:35:51;101943.69;;;2.17;94.55
70314;BME280;57725;47.526;18.986;2023-02-13T06:38:19;101941.13;;;2.18;94.78
70314;BME280;57725;47.526;18.986;2023-02-13T06:40:47;101944.59;;;2.19;94.46
70314;BME280;57725;47.526;18.986;2023-02-13T06:43:15;101939.38;;;2.17;94.46
70314;BME280;57725;47.526;18.986;2023-02-13T06:45:41;101941.09;;;2.17;94.75
70314;BME280;57725;47.526;18.986;2023-02-13T06:48:08;101942.84;;;2.18;94.66
70314;BME280;57725;47.526;18.986;2023-02-13T06:50:36;101944.53;;;2.17;94.67
70314;BME280;57725;47.526;18.986;2023-02-13T06:53:04;101935.06;;;2.16;94.54
70314;BME280;57725;47.526;18.986;2023-02-13T06:55:31;101942.84;;;2.18;94.62
70314;BME280;57725;47.526;18.986;2023-02-13T06:57:59;101941.09;;;2.17;94.88
70314;BME280;57725;47.526;18.986;2023-02-13T07:00:27;101933.34;;;2.17;94.58
70314;BME280;57725;47.526;18.986;2023-02-13T07:02:52;101937.63;;;2.16;94.73
70314;BME280;57725;47.526;18.986;2023-02-13T07:05:18;101940.22;;;2.16;94.50
70314;BME280;57725;47.526;18.986;2023-02-13T07:07:43;101938.47;;;2.15;94.85
70314;BME280;57725;47.526;18.986;2023-02-13T07:10:13;101941.94;;;2.16;94.96
70314;BME280;57725;47.526;18.986;2023-02-13T07:12:41;101940.22;;;2.16;94.73
70314;BME280;57725;47.526;18.986;2023-02-13T07:15:07;101935.81;;;2.12;94.76
70314;BME280;57725;47.526;18.986;2023-02-13T07:17:35;101941.94;;;2.16;94.65
70314;BME280;57725;47.526;18.986;2023-02-13T07:20:00;101944.50;;;2.16;94.53
70314;BME280;57725;47.526;18.986;2023-02-13T07:22:29;101943.59;;;2.14;94.88
70314;BME280;57725;47.526;18.986;2023-02-13T07:24:55;101947.03;;;2.14;94.61
70314;BME280;57725;47.526;18.986;2023-02-13T07:27:23;101943.63;;;2.15;94.54
70314;BME280;57725;47.526;18.986;2023-02-13T07:29:48;101946.22;;;2.15;94.92
70314;BME280;57725;47.526;18.986;2023-02-13T07:32:13;101941.00;;;2.14;94.46
70314;BME280;57725;47.526;18.986;2023-02-13T07:34:42;101935.84;;;2.14;94.76
70314;BME280;57725;47.526;18.986;2023-02-13T07:37:10;101941.09;;;2.17;94.97
70314;BME280;57725;47.526;18.986;2023-02-13T07:39:38;101941.94;;;2.16;94.82
70314;BME280;57725;47.526;18.986;2023-02-13T07:42:04;101946.22;;;2.15;95.13
70314;BME280;57725;47.526;18.986;2023-02-13T07:44:30;101953.13;;;2.16;94.93
70314;BME280;57725;47.526;18.986;2023-02-13T07:46:55;101957.44;;;2.17;95.07
70314;BME280;57725;47.526;18.986;2023-02-13T07:49:21;101953.13;;;2.16;94.73
70314;BME280;57725;47.526;18.986;2023-02-13T07:51:48;101947.03;;;2.14;94.83
70314;BME280;57725;47.526;18.986;2023-02-13T07:54:14;101958.28;;;2.16;95.20
70314;BME280;57725;47.526;18.986;2023-02-13T07:56:41;101957.41;;;2.16;95.03
70314;BME280;57725;47.526;18.986;2023-02-13T07:59:07;101965.16;;;2.16;95.28
70314;BME280;57725;47.526;18.986;2023-02-13T08:01:34;101959.16;;;2.17;94.83
70314;BME280;57725;47.526;18.986;2023-02-13T08:04:02;101961.75;;;2.17;95.09
70314;BME280;57725;47.526;18.986;2023-02-13T08:06:28;101959.16;;;2.17;95.32
70314;BME280;57725;47.526;18.986;2023-02-13T08:08:55;101956.56;;;2.17;95.57
70314;BME280;57725;47.526;18.986;2023-02-13T08:11:39;101957.41;;;2.16;95.48
70314;BME280;57725;47.526;18.986;2023-02-13T08:14:24;101957.44;;;2.17;95.13
70314;BME280;57725;47.526;18.986;2023-02-13T08:16:50;101948.00;;;2.18;94.98
70314;BME280;57725;47.526;18.986;2023-02-13T08:19:20;101948.00;;;2.18;95.31
70314;BME280;57725;47.526;18.986;2023-02-13T08:21:47;101947.13;;;2.17;95.45
70314;BME280;57725;47.526;18.986;2023-02-13T08:24:13;101947.13;;;2.17;95.21
70314;BME280;57725;47.526;18.986;2023-02-13T08:26:38;101943.59;;;2.14;95.46
70314;BME280;57725;47.526;18.986;2023-02-13T08:29:08;101945.41;;;2.18;95.42
70314;BME280;57725;47.526;18.986;2023-02-13T08:31:34;101945.38;;;2.16;95.20
70314;BME280;57725;47.526;18.986;2023-02-13T08:34:02;101939.31;;;2.14;95.43
70314;BME280;57725;47.526;18.986;2023-02-13T08:36:28;101942.84;;;2.18;95.33
70314;BME280;57725;47.526;18.986;2023-02-13T08:38:56;101939.38;;;2.17;95.45
70314;BME280;57725;47.526;18.986;2023-02-13T08:41:22;101940.22;;;2.16;95.63
70314;BME280;57725;47.526;18.986;2023-02-13T08:43:50;101947.13;;;2.17;95.34
70314;BME280;57725;47.526;18.986;2023-02-13T08:46:16;101945.34;;;2.15;95.34
70314;BME280;57725;47.526;18.986;2023-02-13T08:48:46;101943.63;;;2.15;95.37
70314;BME280;57725;47.526;18.986;2023-02-13T08:51:12;101943.63;;;2.15;95.28
70314;BME280;57725;47.526;18.986;2023-02-13T08:53:38;101942.81;;;2.16;95.33
70314;BME280;57725;47.526;18.986;2023-02-13T08:56:04;101946.25;;;2.17;95.46
70314;BME280;57725;47.526;18.986;2023-02-13T08:58:30;101942.81;;;2.16;95.18
70314;BME280;57725;47.526;18.986;2023-02-13T09:00:58;101938.50;;;2.17;95.20
70314;BME280;57725;47.526;18.986;2023-02-13T09:03:23;101937.63;;;2.16;95.26
70314;BME280;57725;47.526;18.986;2023-02-13T09:05:51;101938.50;;;2.17;95.32
70314;BME280;57725;47.526;18.986;2023-02-13T09:08:16;101940.25;;;2.18;95.22
70314;BME280;57725;47.526;18.986;2023-02-13T09:10:42;101939.34;;;2.16;95.74
70314;BME280;57725;47.526;18.986;2023-02-13T09:13:10;101943.72;;;2.18;95.64
70314;BME280;57725;47.526;18.986;2023-02-13T09:15:44;101935.97;;;2.18;95.42
70314;BME280;57725;47.526;18.986;2023-02-13T09:18:09;101941.13;;;2.18;95.13
70314;BME280;57725;47.526;18.986;2023-02-13T09:20:35;101938.56;;;2.18;95.13
70314;BME280;57725;47.526;18.986;2023-02-13T09:23:02;101938.56;;;2.18;95.60
70314;BME280;57725;47.526;18.986;2023-02-13T09:25:28;101930.81;;;2.18;95.54
70314;BME280;57725;47.526;18.986;2023-02-13T09:27:53;101932.44;;;2.15;95.34
70314;BME280;57725;47.526;18.986;2023-02-13T09:30:27;101938.56;;;2.20;95.40
70314;BME280;57725;47.526;18.986;2023-02-13T09:32:53;101935.09;;;2.19;95.41
70314;BME280;57725;47.526;18.986;2023-02-13T09:35:19;101941.16;;;2.20;95.14
70314;BME280;57725;47.526;18.986;2023-02-13T09:37:45;101932.47;;;2.16;95.39
70314;BME280;57725;47.526;18.986;2023-02-13T09:40:21;101937.69;;;2.19;95.60
70314;BME280;57725;47.526;18.986;2023-02-13T09:42:48;101930.81;;;2.20;95.40
70314;BME280;57725;47.526;18.986;2023-02-13T09:45:18;101929.06;;;2.17;95.45
70314;BME280;57725;47.526;18.986;2023-02-13T09:47:45;101932.53;;;2.19;95.50
70314;BME280;57725;47.526;18.986;2023-02-13T09:52:52;101933.44;;;2.22;95.69
70314;BME280;57725;47.526;18.986;2023-02-13T09:55:23;101930.84;;;2.22;95.31
70314;BME280;57725;47.526;18.986;2023-02-13T09:58:07;101926.56;;;2.22;95.36
70314;BME280;57725;47.526;18.986;2023-02-13T10:00:40;101924.88;;;2.23;95.17
70314;BME280;57725;47.526;18.986;2023-02-13T10:19:30;101898.25;;;2.25;95.29
70314;BME280;57725;47.526;18.986;2023-02-13T10:22:00;101899.13;;;2.26;95.56
70314;BME280;57725;47.526;18.986;2023-02-13T10:24:48;101899.13;;;2.26;95.47
70314;BME280;57725;47.526;18.986;2023-02-13T10:29:47;101891.31;;;2.23;95.55
70314;BME280;57725;47.526;18.986;2023-02-13T10:35:17;101880.19;;;2.25;95.60
70314;BME280;57725;47.526;18.986;2023-02-13T10:37:54;101877.63;;;2.25;95.60
70314;BME280;57725;47.526;18.986;2023-02-13T10:40:27;101873.38;;;2.27;95.37
70314;BME280;57725;47.526;18.986;2023-02-13T10:43:18;101879.44;;;2.29;95.37
70314;BME280;57725;47.526;18.986;2023-02-13T10:49:02;101874.28;;;2.29;95.66
70314;BME280;57725;47.526;18.986;2023-02-13T10:51:39;101873.44;;;2.30;95.24
70314;BME280;57725;47.526;18.986;2023-02-13T10:59:26;101864.84;;;2.31;95.34
70314;BME280;57725;47.526;18.986;2023-02-13T11:04:42;101848.50;;;2.31;95.58
70314;BME280;57725;47.526;18.986;2023-02-13T11:07:13;101850.22;;;2.32;95.59
70314;BME280;57725;47.526;18.986;2023-02-13T11:09:41;101845.94;;;2.32;95.74
70314;BME280;57725;47.526;18.986;2023-02-13T11:12:29;101851.09;;;2.32;95.42
70314;BME280;57725;47.526;18.986;2023-02-13T11:15:06;101843.38;;;2.34;95.46
70314;BME280;57725;47.526;18.986;2023-02-13T11:17:38;101842.56;;;2.35;95.74
70314;BME280;57725;47.526;18.986;2023-02-13T11:20:25;101839.97;;;2.35;95.63
70314;BME280;57725;47.526;18.986;2023-02-13T11:22:52;101833.09;;;2.35;95.48
70314;BME280;57725;47.526;18.986;2023-02-13T11:25:27;101831.41;;;2.36;95.50
70314;BME280;57725;47.526;18.986;2023-02-13T11:28:14;101827.97;;;2.37;95.44
70314;BME280;57725;47.526;18.986;2023-02-13T11:30:44;101823.66;;;2.36;95.57
70314;BME280;57725;47.526;18.986;2023-02-13T11:35:41;101828.00;;;2.38;95.70
70314;BME280;57725;47.526;18.986;2023-02-13T11:40:37;101815.16;;;2.40;95.58
70314;BME280;57725;47.526;18.986;2023-02-13T11:43:07;101809.97;;;2.40;95.71
70314;BME280;57725;47.526;18.986;2023-02-13T11:45:39;101802.28;;;2.41;95.37
70314;BME280;57725;47.526;18.986;2023-02-13T11:48:08;101794.53;;;2.41;95.32
70314;BME280;57725;47.526;18.986;2023-02-13T11:50:50;101803.97;;;2.41;95.65
70314;BME280;57725;47.526;18.986;2023-02-13T11:53:23;101806.56;;;2.42;95.50
70314;BME280;57725;47.526;18.986;2023-02-13T11:56:09;101811.78;;;2.44;95.76
70314;BME280;57725;47.526;18.986;2023-02-13T11:58:35;101805.72;;;2.43;95.41
70314;BME280;57725;47.526;18.986;2023-02-13T12:06:26;101795.44;;;2.45;95.37
70314;BME280;57725;47.526;18.986;2023-02-13T12:08:53;101788.56;;;2.45;95.27
70314;BME280;57725;47.526;18.986;2023-02-13T12:14:03;101798.09;;;2.48;95.45
70314;BME280;57725;47.526;18.986;2023-02-13T12:16:37;101800.69;;;2.48;95.32
70314;BME280;57725;47.526;18.986;2023-02-13T12:19:12;101791.22;;;2.48;95.29
70314;BME280;57725;47.526;18.986;2023-02-13T12:21:55;101790.38;;;2.49;95.39
70314;BME280;57725;47.526;18.986;2023-02-13T12:25:11;101784.38;;;2.50;95.33
70314;BME280;57725;47.526;18.986;2023-02-13T12:30:40;101779.22;;;2.50;95.42
70314;BME280;57725;47.526;18.986;2023-02-13T12:39:29;101770.63;;;2.51;95.34
70314;BME280;57725;47.526;18.986;2023-02-13T12:53:06;101748.31;;;2.55;95.37
70314;BME280;57725;47.526;18.986;2023-02-13T13:11:49;101732.84;;;2.57;95.47
70314;BME280;57725;47.526;18.986;2023-02-13T13:16:59;101730.31;;;2.58;95.49
70314;BME280;57725;47.526;18.986;2023-02-13T13:28:12;101732.88;;;2.58;95.38
70314;BME280;57725;47.526;18.986;2023-02-13T13:30:41;101730.38;;;2.61;95.18
70314;BME280;57725;47.526;18.986;2023-02-13T13:43:49;101723.53;;;2.63;95.51
70314;BME280;57725;47.526;18.986;2023-02-13T13:49:09;101716.66;;;2.64;95.30
70314;BME280;57725;47.526;18.986;2023-02-13T13:51:38;101719.25;;;2.64;95.36
70314;BME280;57725;47.526;18.986;2023-02-13T14:07:35;101721.00;;;2.68;95.49
70314;BME280;57725;47.526;18.986;2023-02-13T14:12:49;101715.84;;;2.68;95.28
70314;BME280;57725;47.526;18.986;2023-02-13T14:18:21;101727.06;;;2.68;95.28
70314;BME280;57725;47.526;18.986;2023-02-13T14:23:26;101721.88;;;2.68;95.19
70314;BME280;57725;47.526;18.986;2023-02-13T14:28:41;101725.31;;;2.67;95.45
70314;BME280;57725;47.526;18.986;2023-02-13T14:31:22;101729.63;;;2.68;95.22
70314;BME280;57725;47.526;18.986;2023-02-13T14:36:30;101726.19;;;2.68;95.46
70314;BME280;57725;47.526;18.986;2023-02-13T14:39:19;101731.41;;;2.71;95.26
70314;BME280;57725;47.526;18.986;2023-02-13T14:44:44;101730.56;;;2.72;95.53
70314;BME280;57725;47.526;18.986;2023-02-13T14:47:21;101729.72;;;2.73;95.28
70314;BME280;57725;47.526;18.986;2023-02-13T14:49:49;101726.28;;;2.72;95.47
70314;BME280;57725;47.526;18.986;2023-02-13T14:52:24;101726.22;;;2.69;95.49
70314;BME280;57725;47.526;18.986;2023-02-13T14:54:55;101729.72;;;2.73;95.31
70314;BME280;57725;47.526;18.986;2023-02-13T14:57:44;101730.59;;;2.73;95.39
70314;BME280;57725;47.526;18.986;2023-02-13T15:02:51;101722.84;;;2.73;95.21
70314;BME280;57725;47.526;18.986;2023-02-13T15:05:31;101725.47;;;2.75;95.26
70314;BME280;57725;47.526;18.986;2023-02-13T15:12:58;101721.19;;;2.75;95.34
70314;BME280;57725;47.526;18.986;2023-02-13T15:15:31;101721.16;;;2.74;95.42
70314;BME280;57725;47.526;18.986;2023-02-13T15:18:21;101730.63;;;2.75;95.44
70314;BME280;57725;47.526;18.986;2023-02-13T15:20:53;101723.75;;;2.75;95.43
70314;BME280;57725;47.526;18.986;2023-02-13T15:23:23;101724.59;;;2.74;95.35
70314;BME280;57725;47.526;18.986;2023-02-13T15:26:02;101729.75;;;2.74;95.58
70314;BME280;57725;47.526;18.986;2023-02-13T15:28:32;101739.28;;;2.77;95.37
70314;BME280;57725;47.526;18.986;2023-02-13T15:31:18;101734.09;;;2.75;95.34
70314;BME280;57725;47.526;18.986;2023-02-13T15:33:50;101737.53;;;2.77;95.40
70314;BME280;57725;47.526;18.986;2023-02-13T15:36:21;101734.13;;;2.78;95.34
70314;BME280;57725;47.526;18.986;2023-02-13T15:38:57;101728.97;;;2.78;95.04
70314;BME280;57725;47.526;18.986;2023-02-13T15:41:29;101725.53;;;2.79;95.28
70314;BME280;57725;47.526;18.986;2023-02-13T15:43:59;101723.78;;;2.78;95.42
70314;BME280;57725;47.526;18.986;2023-02-13T15:46:35;101717.78;;;2.79;95.25
70314;BME280;57725;47.526;18.986;2023-02-13T15:49:12;101723.78;;;2.78;95.52
70314;BME280;57725;47.526;18.986;2023-02-13T15:51:42;101718.66;;;2.80;95.21
70314;BME280;57725;47.526;18.986;2023-02-13T15:54:27;101723.81;;;2.80;95.09
70314;BME280;57725;47.526;18.986;2023-02-13T15:56:55;101719.53;;;2.80;95.38
70314;BME280;57725;47.526;18.986;2023-02-13T15:59:29;101728.16;;;2.81;95.51
70314;BME280;57725;47.526;18.986;2023-02-13T16:01:56;101721.28;;;2.81;95.27
70314;BME280;57725;47.526;18.986;2023-02-13T16:04:23;101716.94;;;2.80;95.33
70314;BME280;57725;47.526;18.986;2023-02-13T16:06:50;101722.16;;;2.82;95.03
70314;BME280;57725;47.526;18.986;2023-02-13T16:12:02;101732.50;;;2.83;95.26
70314;BME280;57725;47.526;18.986;2023-02-13T16:14:29;101724.69;;;2.80;95.29
70314;BME280;57725;47.526;18.986;2023-02-13T16:17:14;101735.94;;;2.82;95.18